sensor_id;sensor_type;location;lat;lon;timestamp;P1;durP1;ratioP1;P2;durP2;ratioP2
20734;SDS011;10528;52.124;5.196;2023-07-13T00:02:07;6.70;;;1.70;;
20734;SDS011;10528;52.124;5.196;2023-07-13T00:04:35;12.05;;;1.73;;
20734;SDS011;10528;52.124;5.196;2023-07-13T00:07:02;12.25;;;1.70;;
20734;SDS011;10528;52.124;5.196;2023-07-13T00:09:30;9.55;;;2.30;;
20734;SDS011;10528;52.124;5.196;2023-07-13T00:11:57;10.55;;;2.17;;
20734;SDS011;10528;52.124;5.196;2023-07-13T00:14:25;10.15;;;1.90;;
20734;SDS011;10528;52.124;5.196;2023-07-13T00:16:54;9.68;;;1.80;;
20734;SDS011;10528;52.124;5.196;2023-07-13T00:19:22;6.43;;;1.70;;
20734;SDS011;10528;52.124;5.196;2023-07-13T00:21:49;8.75;;;2.20;;
20734;SDS011;10528;52.124;5.196;2023-07-13T00:24:17;7.07;;;1.80;;
20734;SDS011;10528;52.124;5.196;2023-07-13T00:26:50;7.53;;;1.70;;
20734;SDS011;10528;52.124;5.196;2023-07-13T00:29:18;11.40;;;2.13;;
20734;SDS011;10528;52.124;5.196;2023-07-13T00:31:47;7.93;;;1.42;;
20734;SDS011;10528;52.124;5.196;2023-07-13T00:34:15;9.52;;;1.58;;
20734;SDS011;10528;52.124;5.196;2023-07-13T00:36:42;6.95;;;1.75;;
20734;SDS011;10528;52.124;5.196;2023-07-13T00:39:09;4.03;;;1.58;;
20734;SDS011;10528;52.124;5.196;2023-07-13T00:41:36;7.50;;;1.77;;
20734;SDS011;10528;52.124;5.196;2023-07-13T00:44:04;6.03;;;1.48;;
20734;SDS011;10528;52.124;5.196;2023-07-13T00:46:32;7.18;;;1.60;;
20734;SDS011;10528;52.124;5.196;2023-07-13T00:49:06;5.45;;;1.60;;
20734;SDS011;10528;52.124;5.196;2023-07-13T00:54:30;7.72;;;1.60;;
20734;SDS011;10528;52.124;5.196;2023-07-13T00:57:11;7.40;;;1.73;;
20734;SDS011;10528;52.124;5.196;2023-07-13T00:59:48;7.90;;;2.03;;
20734;SDS011;10528;52.124;5.196;2023-07-13T01:02:23;7.35;;;1.60;;
20734;SDS011;10528;52.124;5.196;2023-07-13T01:04:52;6.53;;;1.77;;
20734;SDS011;10528;52.124;5.196;2023-07-13T01:07:19;6.88;;;1.90;;
20734;SDS011;10528;52.124;5.196;2023-07-13T01:09:46;7.90;;;1.70;;
20734;SDS011;10528;52.124;5.196;2023-07-13T01:12:13;7.97;;;1.67;;
20734;SDS011;10528;52.124;5.196;2023-07-13T01:14:41;7.05;;;1.70;;
20734;SDS011;10528;52.124;5.196;2023-07-13T01:17:11;7.47;;;1.50;;
20734;SDS011;10528;52.124;5.196;2023-07-13T01:19:39;7.80;;;1.50;;
20734;SDS011;10528;52.124;5.196;2023-07-13T01:22:12;7.63;;;1.48;;
20734;SDS011;10528;52.124;5.196;2023-07-13T01:24:46;6.45;;;1.60;;
20734;SDS011;10528;52.124;5.196;2023-07-13T01:27:15;6.57;;;1.83;;
20734;SDS011;10528;52.124;5.196;2023-07-13T01:29:47;7.40;;;1.55;;
20734;SDS011;10528;52.124;5.196;2023-07-13T01:32:22;10.05;;;1.90;;
20734;SDS011;10528;52.124;5.196;2023-07-13T01:34:54;8.40;;;1.73;;
20734;SDS011;10528;52.124;5.196;2023-07-13T01:37:21;8.18;;;2.08;;
20734;SDS011;10528;52.124;5.196;2023-07-13T01:39:51;10.15;;;1.95;;
20734;SDS011;10528;52.124;5.196;2023-07-13T01:42:18;9.65;;;1.65;;
20734;SDS011;10528;52.124;5.196;2023-07-13T01:44:47;8.85;;;2.72;;
20734;SDS011;10528;52.124;5.196;2023-07-13T01:47:14;8.32;;;1.90;;
20734;SDS011;10528;52.124;5.196;2023-07-13T01:49:41;11.57;;;1.80;;
20734;SDS011;10528;52.124;5.196;2023-07-13T01:52:08;9.82;;;2.22;;
20734;SDS011;10528;52.124;5.196;2023-07-13T01:54:35;8.13;;;1.85;;
20734;SDS011;10528;52.124;5.196;2023-07-13T01:57:02;8.13;;;1.95;;
20734;SDS011;10528;52.124;5.196;2023-07-13T01:59:30;5.70;;;1.50;;
20734;SDS011;10528;52.124;5.196;2023-07-13T02:01:59;8.57;;;2.08;;
20734;SDS011;10528;52.124;5.196;2023-07-13T02:04:26;9.80;;;2.22;;
20734;SDS011;10528;52.124;5.196;2023-07-13T02:06:53;13.10;;;2.00;;
20734;SDS011;10528;52.124;5.196;2023-07-13T02:09:21;4.90;;;1.60;;
20734;SDS011;10528;52.124;5.196;2023-07-13T02:11:49;8.90;;;2.00;;
20734;SDS011;10528;52.124;5.196;2023-07-13T02:14:16;6.82;;;1.60;;
20734;SDS011;10528;52.124;5.196;2023-07-13T02:16:43;7.95;;;1.88;;
20734;SDS011;10528;52.124;5.196;2023-07-13T02:19:10;7.13;;;1.70;;
20734;SDS011;10528;52.124;5.196;2023-07-13T02:21:37;7.00;;;1.75;;
20734;SDS011;10528;52.124;5.196;2023-07-13T02:24:04;6.50;;;2.00;;
20734;SDS011;10528;52.124;5.196;2023-07-13T02:26:32;6.20;;;1.70;;
20734;SDS011;10528;52.124;5.196;2023-07-13T02:28:58;10.75;;;1.90;;
20734;SDS011;10528;52.124;5.196;2023-07-13T02:31:26;9.13;;;2.13;;
20734;SDS011;10528;52.124;5.196;2023-07-13T02:33:53;8.63;;;2.33;;
20734;SDS011;10528;52.124;5.196;2023-07-13T02:36:20;10.15;;;1.95;;
20734;SDS011;10528;52.124;5.196;2023-07-13T02:38:49;9.77;;;2.35;;
20734;SDS011;10528;52.124;5.196;2023-07-13T02:41:16;10.55;;;2.30;;
20734;SDS011;10528;52.124;5.196;2023-07-13T02:43:45;7.95;;;2.03;;
20734;SDS011;10528;52.124;5.196;2023-07-13T02:46:12;9.13;;;2.10;;
20734;SDS011;10528;52.124;5.196;2023-07-13T02:48:39;12.60;;;2.45;;
20734;SDS011;10528;52.124;5.196;2023-07-13T02:51:06;11.05;;;2.95;;
20734;SDS011;10528;52.124;5.196;2023-07-13T02:53:34;9.23;;;2.35;;
20734;SDS011;10528;52.124;5.196;2023-07-13T02:56:03;14.90;;;2.55;;
20734;SDS011;10528;52.124;5.196;2023-07-13T02:58:31;11.90;;;2.10;;
20734;SDS011;10528;52.124;5.196;2023-07-13T03:00:58;10.82;;;2.30;;
20734;SDS011;10528;52.124;5.196;2023-07-13T03:03:26;10.55;;;3.28;;
20734;SDS011;10528;52.124;5.196;2023-07-13T03:05:57;9.57;;;2.17;;
20734;SDS011;10528;52.124;5.196;2023-07-13T03:08:33;9.48;;;1.88;;
20734;SDS011;10528;52.124;5.196;2023-07-13T03:11:10;12.73;;;2.40;;
20734;SDS011;10528;52.124;5.196;2023-07-13T03:13:42;9.82;;;2.00;;
20734;SDS011;10528;52.124;5.196;2023-07-13T03:16:11;9.07;;;2.40;;
20734;SDS011;10528;52.124;5.196;2023-07-13T03:18:45;8.05;;;1.88;;
20734;SDS011;10528;52.124;5.196;2023-07-13T03:21:13;7.13;;;1.65;;
20734;SDS011;10528;52.124;5.196;2023-07-13T03:23:41;8.68;;;1.90;;
20734;SDS011;10528;52.124;5.196;2023-07-13T03:26:10;9.18;;;1.67;;
20734;SDS011;10528;52.124;5.196;2023-07-13T03:28:42;8.13;;;1.77;;
20734;SDS011;10528;52.124;5.196;2023-07-13T03:31:15;8.65;;;1.70;;
20734;SDS011;10528;52.124;5.196;2023-07-13T03:33:45;8.23;;;1.48;;
20734;SDS011;10528;52.124;5.196;2023-07-13T03:36:17;8.75;;;2.00;;
20734;SDS011;10528;52.124;5.196;2023-07-13T03:38:51;5.97;;;1.60;;
20734;SDS011;10528;52.124;5.196;2023-07-13T03:41:25;8.05;;;1.73;;
20734;SDS011;10528;52.124;5.196;2023-07-13T03:43:54;8.88;;;1.73;;
20734;SDS011;10528;52.124;5.196;2023-07-13T03:46:23;6.22;;;1.60;;
20734;SDS011;10528;52.124;5.196;2023-07-13T03:48:50;8.63;;;1.92;;
20734;SDS011;10528;52.124;5.196;2023-07-13T03:51:17;6.55;;;1.48;;
20734;SDS011;10528;52.124;5.196;2023-07-13T03:53:46;7.10;;;1.92;;
20734;SDS011;10528;52.124;5.196;2023-07-13T03:56:17;11.52;;;1.80;;
20734;SDS011;10528;52.124;5.196;2023-07-13T03:58:45;8.45;;;1.92;;
20734;SDS011;10528;52.124;5.196;2023-07-13T04:01:20;11.25;;;2.28;;
20734;SDS011;10528;52.124;5.196;2023-07-13T04:03:51;10.98;;;2.90;;
20734;SDS011;10528;52.124;5.196;2023-07-13T04:06:22;9.85;;;2.08;;
20734;SDS011;10528;52.124;5.196;2023-07-13T04:08:54;12.95;;;2.58;;
20734;SDS011;10528;52.124;5.196;2023-07-13T04:11:26;11.45;;;2.70;;
20734;SDS011;10528;52.124;5.196;2023-07-13T04:13:56;14.18;;;2.65;;
20734;SDS011;10528;52.124;5.196;2023-07-13T04:16:23;10.10;;;2.85;;
20734;SDS011;10528;52.124;5.196;2023-07-13T04:18:51;8.32;;;2.33;;
20734;SDS011;10528;52.124;5.196;2023-07-13T04:21:26;9.00;;;2.55;;
20734;SDS011;10528;52.124;5.196;2023-07-13T04:23:55;15.73;;;3.10;;
20734;SDS011;10528;52.124;5.196;2023-07-13T04:26:23;10.93;;;3.38;;
20734;SDS011;10528;52.124;5.196;2023-07-13T04:28:50;12.00;;;3.05;;
20734;SDS011;10528;52.124;5.196;2023-07-13T04:31:18;13.45;;;3.55;;
20734;SDS011;10528;52.124;5.196;2023-07-13T04:33:46;13.30;;;3.60;;
20734;SDS011;10528;52.124;5.196;2023-07-13T04:36:15;13.23;;;3.83;;
20734;SDS011;10528;52.124;5.196;2023-07-13T04:38:43;12.10;;;3.33;;
20734;SDS011;10528;52.124;5.196;2023-07-13T04:41:10;13.07;;;3.15;;
20734;SDS011;10528;52.124;5.196;2023-07-13T04:43:39;11.70;;;2.97;;
20734;SDS011;10528;52.124;5.196;2023-07-13T04:46:07;16.52;;;3.67;;
20734;SDS011;10528;52.124;5.196;2023-07-13T04:48:38;11.60;;;3.75;;
20734;SDS011;10528;52.124;5.196;2023-07-13T04:51:06;14.70;;;3.60;;
20734;SDS011;10528;52.124;5.196;2023-07-13T04:53:33;16.08;;;3.28;;
20734;SDS011;10528;52.124;5.196;2023-07-13T04:56:02;12.82;;;3.80;;
20734;SDS011;10528;52.124;5.196;2023-07-13T04:58:30;14.68;;;3.53;;
20734;SDS011;10528;52.124;5.196;2023-07-13T05:01:01;12.68;;;3.08;;
20734;SDS011;10528;52.124;5.196;2023-07-13T05:03:31;16.98;;;3.50;;
20734;SDS011;10528;52.124;5.196;2023-07-13T05:06:00;17.00;;;3.70;;
20734;SDS011;10528;52.124;5.196;2023-07-13T05:08:31;17.20;;;3.63;;
20734;SDS011;10528;52.124;5.196;2023-07-13T05:10:59;16.52;;;3.33;;
20734;SDS011;10528;52.124;5.196;2023-07-13T05:13:28;15.98;;;3.53;;
20734;SDS011;10528;52.124;5.196;2023-07-13T05:15:57;10.57;;;2.78;;
20734;SDS011;10528;52.124;5.196;2023-07-13T05:18:27;15.55;;;3.25;;
20734;SDS011;10528;52.124;5.196;2023-07-13T05:23:30;14.07;;;3.45;;
20734;SDS011;10528;52.124;5.196;2023-07-13T05:25:58;15.32;;;3.38;;
20734;SDS011;10528;52.124;5.196;2023-07-13T05:28:26;16.92;;;3.60;;
20734;SDS011;10528;52.124;5.196;2023-07-13T05:30:55;15.25;;;3.90;;
20734;SDS011;10528;52.124;5.196;2023-07-13T05:33:24;12.75;;;3.63;;
20734;SDS011;10528;52.124;5.196;2023-07-13T05:35:52;11.88;;;3.40;;
20734;SDS011;10528;52.124;5.196;2023-07-13T05:38:19;11.25;;;3.10;;
20734;SDS011;10528;52.124;5.196;2023-07-13T05:40:46;12.30;;;4.03;;
20734;SDS011;10528;52.124;5.196;2023-07-13T05:43:13;13.80;;;4.22;;
20734;SDS011;10528;52.124;5.196;2023-07-13T05:45:41;13.02;;;4.40;;
20734;SDS011;10528;52.124;5.196;2023-07-13T05:48:08;16.27;;;5.15;;
20734;SDS011;10528;52.124;5.196;2023-07-13T05:50:35;13.85;;;4.85;;
20734;SDS011;10528;52.124;5.196;2023-07-13T05:53:02;16.52;;;4.32;;
20734;SDS011;10528;52.124;5.196;2023-07-13T05:55:30;13.77;;;4.25;;
20734;SDS011;10528;52.124;5.196;2023-07-13T05:57:57;18.35;;;4.32;;
20734;SDS011;10528;52.124;5.196;2023-07-13T06:00:26;15.80;;;4.60;;
20734;SDS011;10528;52.124;5.196;2023-07-13T06:02:53;14.95;;;3.80;;
20734;SDS011;10528;52.124;5.196;2023-07-13T06:05:22;11.95;;;3.55;;
20734;SDS011;10528;52.124;5.196;2023-07-13T06:07:49;15.02;;;4.10;;
20734;SDS011;10528;52.124;5.196;2023-07-13T06:10:16;17.83;;;3.80;;
20734;SDS011;10528;52.124;5.196;2023-07-13T06:12:43;15.73;;;3.90;;
20734;SDS011;10528;52.124;5.196;2023-07-13T06:15:10;15.07;;;3.78;;
20734;SDS011;10528;52.124;5.196;2023-07-13T06:17:37;11.52;;;3.75;;
20734;SDS011;10528;52.124;5.196;2023-07-13T06:20:05;15.23;;;3.90;;
20734;SDS011;10528;52.124;5.196;2023-07-13T06:22:33;15.43;;;4.10;;
20734;SDS011;10528;52.124;5.196;2023-07-13T06:25:00;14.05;;;3.97;;
20734;SDS011;10528;52.124;5.196;2023-07-13T06:27:27;16.60;;;4.63;;
20734;SDS011;10528;52.124;5.196;2023-07-13T06:29:56;15.38;;;3.88;;
20734;SDS011;10528;52.124;5.196;2023-07-13T06:32:23;12.77;;;4.20;;
20734;SDS011;10528;52.124;5.196;2023-07-13T06:34:50;11.90;;;4.13;;
20734;SDS011;10528;52.124;5.196;2023-07-13T06:37:20;15.45;;;4.20;;
20734;SDS011;10528;52.124;5.196;2023-07-13T06:39:47;12.95;;;4.57;;
20734;SDS011;10528;52.124;5.196;2023-07-13T06:42:15;14.18;;;4.13;;
20734;SDS011;10528;52.124;5.196;2023-07-13T06:44:43;13.75;;;5.10;;
20734;SDS011;10528;52.124;5.196;2023-07-13T06:47:10;13.63;;;4.90;;
20734;SDS011;10528;52.124;5.196;2023-07-13T06:49:37;16.60;;;5.07;;
20734;SDS011;10528;52.124;5.196;2023-07-13T06:52:05;15.73;;;5.28;;
20734;SDS011;10528;52.124;5.196;2023-07-13T06:54:32;11.23;;;5.30;;
20734;SDS011;10528;52.124;5.196;2023-07-13T06:56:59;17.02;;;5.40;;
20734;SDS011;10528;52.124;5.196;2023-07-13T06:59:26;10.75;;;5.43;;
20734;SDS011;10528;52.124;5.196;2023-07-13T07:01:53;17.80;;;5.82;;
20734;SDS011;10528;52.124;5.196;2023-07-13T07:04:20;13.85;;;5.25;;
20734;SDS011;10528;52.124;5.196;2023-07-13T07:06:47;14.10;;;5.55;;
20734;SDS011;10528;52.124;5.196;2023-07-13T07:09:14;13.20;;;5.85;;
20734;SDS011;10528;52.124;5.196;2023-07-13T07:11:42;16.77;;;6.22;;
20734;SDS011;10528;52.124;5.196;2023-07-13T07:14:28;11.95;;;4.78;;
20734;SDS011;10528;52.124;5.196;2023-07-13T07:16:55;10.82;;;3.55;;
20734;SDS011;10528;52.124;5.196;2023-07-13T07:19:25;9.40;;;3.63;;
20734;SDS011;10528;52.124;5.196;2023-07-13T07:21:53;8.98;;;3.17;;
20734;SDS011;10528;52.124;5.196;2023-07-13T07:24:20;9.25;;;3.40;;
20734;SDS011;10528;52.124;5.196;2023-07-13T07:26:47;8.93;;;3.08;;
20734;SDS011;10528;52.124;5.196;2023-07-13T07:29:17;9.10;;;3.20;;
20734;SDS011;10528;52.124;5.196;2023-07-13T07:31:47;8.55;;;3.20;;
20734;SDS011;10528;52.124;5.196;2023-07-13T07:34:32;7.70;;;3.63;;
20734;SDS011;10528;52.124;5.196;2023-07-13T07:36:59;14.95;;;5.30;;
20734;SDS011;10528;52.124;5.196;2023-07-13T07:39:30;11.95;;;4.28;;
20734;SDS011;10528;52.124;5.196;2023-07-13T07:41:58;13.70;;;4.53;;
20734;SDS011;10528;52.124;5.196;2023-07-13T07:44:25;15.45;;;5.05;;
20734;SDS011;10528;52.124;5.196;2023-07-13T07:46:53;13.38;;;5.13;;
20734;SDS011;10528;52.124;5.196;2023-07-13T07:49:21;14.65;;;5.00;;
20734;SDS011;10528;52.124;5.196;2023-07-13T07:51:48;13.60;;;5.32;;
20734;SDS011;10528;52.124;5.196;2023-07-13T07:54:15;11.35;;;4.68;;
20734;SDS011;10528;52.124;5.196;2023-07-13T07:57:03;17.58;;;4.95;;
20734;SDS011;10528;52.124;5.196;2023-07-13T07:59:33;11.52;;;4.40;;
20734;SDS011;10528;52.124;5.196;2023-07-13T08:02:03;9.82;;;4.10;;
20734;SDS011;10528;52.124;5.196;2023-07-13T08:04:33;14.50;;;4.65;;
20734;SDS011;10528;52.124;5.196;2023-07-13T08:07:03;10.15;;;4.70;;
20734;SDS011;10528;52.124;5.196;2023-07-13T08:09:31;9.65;;;4.35;;
20734;SDS011;10528;52.124;5.196;2023-07-13T08:11:58;13.55;;;4.32;;
20734;SDS011;10528;52.124;5.196;2023-07-13T08:14:28;8.90;;;3.90;;
20734;SDS011;10528;52.124;5.196;2023-07-13T08:17:15;11.77;;;3.90;;
20734;SDS011;10528;52.124;5.196;2023-07-13T08:19:42;12.25;;;4.28;;
20734;SDS011;10528;52.124;5.196;2023-07-13T08:22:09;10.60;;;4.47;;
20734;SDS011;10528;52.124;5.196;2023-07-13T08:24:36;10.70;;;3.92;;
20734;SDS011;10528;52.124;5.196;2023-07-13T08:27:03;9.07;;;3.58;;
20734;SDS011;10528;52.124;5.196;2023-07-13T08:29:31;5.30;;;2.67;;
20734;SDS011;10528;52.124;5.196;2023-07-13T08:31:58;6.78;;;2.35;;
20734;SDS011;10528;52.124;5.196;2023-07-13T08:34:25;6.10;;;2.10;;
20734;SDS011;10528;52.124;5.196;2023-07-13T08:36:52;4.05;;;1.77;;
20734;SDS011;10528;52.124;5.196;2023-07-13T08:39:19;5.07;;;1.75;;
20734;SDS011;10528;52.124;5.196;2023-07-13T08:41:50;5.72;;;1.63;;
20734;SDS011;10528;52.124;5.196;2023-07-13T08:44:31;5.53;;;1.88;;
20734;SDS011;10528;52.124;5.196;2023-07-13T08:47:10;3.85;;;1.45;;
20734;SDS011;10528;52.124;5.196;2023-07-13T08:49:42;7.30;;;1.83;;
20734;SDS011;10528;52.124;5.196;2023-07-13T08:52:14;6.70;;;2.00;;
20734;SDS011;10528;52.124;5.196;2023-07-13T08:54:59;6.82;;;2.15;;
20734;SDS011;10528;52.124;5.196;2023-07-13T08:57:41;7.57;;;2.85;;
20734;SDS011;10528;52.124;5.196;2023-07-13T09:00:12;5.95;;;1.95;;
20734;SDS011;10528;52.124;5.196;2023-07-13T09:02:59;5.15;;;1.63;;
20734;SDS011;10528;52.124;5.196;2023-07-13T09:05:37;5.45;;;1.95;;
20734;SDS011;10528;52.124;5.196;2023-07-13T09:11:10;5.25;;;2.20;;
20734;SDS011;10528;52.124;5.196;2023-07-13T09:14:23;3.47;;;1.90;;
20734;SDS011;10528;52.124;5.196;2023-07-13T09:16:54;4.70;;;2.10;;
20734;SDS011;10528;52.124;5.196;2023-07-13T09:19:25;8.60;;;2.30;;
20734;SDS011;10528;52.124;5.196;2023-07-13T09:21:59;4.45;;;2.42;;
20734;SDS011;10528;52.124;5.196;2023-07-13T09:27:42;6.82;;;2.83;;
20734;SDS011;10528;52.124;5.196;2023-07-13T09:32:48;9.68;;;3.20;;
20734;SDS011;10528;52.124;5.196;2023-07-13T09:35:21;7.80;;;2.67;;
20734;SDS011;10528;52.124;5.196;2023-07-13T09:38:17;7.68;;;2.05;;
20734;SDS011;10528;52.124;5.196;2023-07-13T09:46:39;5.05;;;1.73;;
20734;SDS011;10528;52.124;5.196;2023-07-13T09:49:13;5.25;;;1.80;;
20734;SDS011;10528;52.124;5.196;2023-07-13T09:51:40;6.15;;;2.15;;
20734;SDS011;10528;52.124;5.196;2023-07-13T09:54:19;6.07;;;2.15;;
20734;SDS011;10528;52.124;5.196;2023-07-13T09:56:57;4.38;;;2.28;;
20734;SDS011;10528;52.124;5.196;2023-07-13T09:59:45;8.18;;;3.00;;
20734;SDS011;10528;52.124;5.196;2023-07-13T10:02:36;6.93;;;3.13;;
20734;SDS011;10528;52.124;5.196;2023-07-13T10:05:06;9.68;;;3.33;;
20734;SDS011;10528;52.124;5.196;2023-07-13T10:07:44;9.30;;;2.90;;
20734;SDS011;10528;52.124;5.196;2023-07-13T10:10:15;9.70;;;2.80;;
20734;SDS011;10528;52.124;5.196;2023-07-13T10:12:49;5.63;;;3.35;;
20734;SDS011;10528;52.124;5.196;2023-07-13T10:15:22;9.82;;;3.38;;
20734;SDS011;10528;52.124;5.196;2023-07-13T10:17:52;6.88;;;2.97;;
20734;SDS011;10528;52.124;5.196;2023-07-13T10:20:22;6.25;;;2.92;;
20734;SDS011;10528;52.124;5.196;2023-07-13T10:23:00;7.63;;;3.50;;
20734;SDS011;10528;52.124;5.196;2023-07-13T10:25:33;8.50;;;3.47;;
20734;SDS011;10528;52.124;5.196;2023-07-13T10:28:31;7.32;;;3.47;;
20734;SDS011;10528;52.124;5.196;2023-07-13T10:31:01;9.35;;;3.90;;
20734;SDS011;10528;52.124;5.196;2023-07-13T10:33:37;6.85;;;3.28;;
20734;SDS011;10528;52.124;5.196;2023-07-13T10:36:27;8.10;;;3.13;;
20734;SDS011;10528;52.124;5.196;2023-07-13T10:39:09;9.95;;;3.25;;
20734;SDS011;10528;52.124;5.196;2023-07-13T10:41:45;5.57;;;2.90;;
20734;SDS011;10528;52.124;5.196;2023-07-13T10:44:20;8.15;;;3.00;;
20734;SDS011;10528;52.124;5.196;2023-07-13T10:47:01;7.53;;;2.80;;
20734;SDS011;10528;52.124;5.196;2023-07-13T10:49:42;5.38;;;2.65;;
20734;SDS011;10528;52.124;5.196;2023-07-13T10:58:22;8.05;;;2.45;;
20734;SDS011;10528;52.124;5.196;2023-07-13T11:01:11;5.63;;;3.28;;
20734;SDS011;10528;52.124;5.196;2023-07-13T11:04:01;6.03;;;2.75;;
20734;SDS011;10528;52.124;5.196;2023-07-13T11:07:10;6.35;;;2.63;;
20734;SDS011;10528;52.124;5.196;2023-07-13T11:12:08;5.82;;;2.45;;
20734;SDS011;10528;52.124;5.196;2023-07-13T11:15:00;6.35;;;3.08;;
20734;SDS011;10528;52.124;5.196;2023-07-13T11:17:37;10.45;;;2.88;;
20734;SDS011;10528;52.124;5.196;2023-07-13T11:25:39;5.95;;;1.75;;
20734;SDS011;10528;52.124;5.196;2023-07-13T11:30:43;5.78;;;2.30;;
20734;SDS011;10528;52.124;5.196;2023-07-13T11:33:44;4.63;;;2.22;;
20734;SDS011;10528;52.124;5.196;2023-07-13T11:36:23;7.10;;;2.40;;
20734;SDS011;10528;52.124;5.196;2023-07-13T11:38:59;6.97;;;2.75;;
20734;SDS011;10528;52.124;5.196;2023-07-13T11:41:42;5.70;;;2.42;;
20734;SDS011;10528;52.124;5.196;2023-07-13T11:44:17;4.53;;;2.60;;
20734;SDS011;10528;52.124;5.196;2023-07-13T11:46:51;6.88;;;2.67;;
20734;SDS011;10528;52.124;5.196;2023-07-13T11:49:25;7.25;;;3.60;;
20734;SDS011;10528;52.124;5.196;2023-07-13T11:51:59;8.43;;;2.50;;
20734;SDS011;10528;52.124;5.196;2023-07-13T11:54:29;7.05;;;2.90;;
20734;SDS011;10528;52.124;5.196;2023-07-13T11:57:20;7.72;;;2.72;;
20734;SDS011;10528;52.124;5.196;2023-07-13T12:00:00;5.68;;;2.50;;
20734;SDS011;10528;52.124;5.196;2023-07-13T12:02:38;5.28;;;2.13;;
20734;SDS011;10528;52.124;5.196;2023-07-13T12:05:10;7.60;;;2.65;;
20734;SDS011;10528;52.124;5.196;2023-07-13T12:07:49;7.28;;;2.95;;
20734;SDS011;10528;52.124;5.196;2023-07-13T12:10:21;8.52;;;2.65;;
20734;SDS011;10528;52.124;5.196;2023-07-13T12:13:00;10.52;;;2.90;;
20734;SDS011;10528;52.124;5.196;2023-07-13T12:15:40;8.27;;;2.85;;
20734;SDS011;10528;52.124;5.196;2023-07-13T12:18:13;7.07;;;2.40;;
20734;SDS011;10528;52.124;5.196;2023-07-13T12:20:45;5.78;;;2.53;;
20734;SDS011;10528;52.124;5.196;2023-07-13T12:23:24;9.35;;;2.42;;
20734;SDS011;10528;52.124;5.196;2023-07-13T12:25:55;4.15;;;2.05;;
20734;SDS011;10528;52.124;5.196;2023-07-13T12:28:34;4.90;;;2.10;;
20734;SDS011;10528;52.124;5.196;2023-07-13T12:31:05;4.97;;;2.13;;
20734;SDS011;10528;52.124;5.196;2023-07-13T12:34:25;6.60;;;2.30;;
20734;SDS011;10528;52.124;5.196;2023-07-13T12:36:50;5.72;;;2.00;;
20734;SDS011;10528;52.124;5.196;2023-07-13T12:45:01;5.63;;;2.33;;
20734;SDS011;10528;52.124;5.196;2023-07-13T12:47:48;7.35;;;2.30;;
20734;SDS011;10528;52.124;5.196;2023-07-13T12:50:20;5.47;;;2.20;;
20734;SDS011;10528;52.124;5.196;2023-07-13T12:52:50;5.30;;;2.47;;
20734;SDS011;10528;52.124;5.196;2023-07-13T12:55:23;5.70;;;2.50;;
20734;SDS011;10528;52.124;5.196;2023-07-13T12:57:51;5.60;;;1.95;;
20734;SDS011;10528;52.124;5.196;2023-07-13T13:00:29;4.72;;;2.00;;
20734;SDS011;10528;52.124;5.196;2023-07-13T13:03:06;5.00;;;2.00;;
20734;SDS011;10528;52.124;5.196;2023-07-13T13:06:27;3.92;;;2.20;;
20734;SDS011;10528;52.124;5.196;2023-07-13T13:08:53;3.67;;;1.90;;
20734;SDS011;10528;52.124;5.196;2023-07-13T13:11:25;4.15;;;1.98;;
20734;SDS011;10528;52.124;5.196;2023-07-13T13:13:55;4.78;;;2.03;;
20734;SDS011;10528;52.124;5.196;2023-07-13T13:16:23;6.35;;;2.15;;
20734;SDS011;10528;52.124;5.196;2023-07-13T13:21:54;5.38;;;2.50;;
20734;SDS011;10528;52.124;5.196;2023-07-13T13:24:25;4.72;;;2.30;;
20734;SDS011;10528;52.124;5.196;2023-07-13T13:26:54;6.10;;;2.47;;
20734;SDS011;10528;52.124;5.196;2023-07-13T13:29:24;4.90;;;2.28;;
20734;SDS011;10528;52.124;5.196;2023-07-13T13:31:52;4.15;;;2.05;;
20734;SDS011;10528;52.124;5.196;2023-07-13T13:34:23;6.05;;;2.42;;
20734;SDS011;10528;52.124;5.196;2023-07-13T13:36:51;5.03;;;3.13;;
20734;SDS011;10528;52.124;5.196;2023-07-13T13:39:34;9.63;;;2.58;;
20734;SDS011;10528;52.124;5.196;2023-07-13T13:42:05;5.40;;;2.20;;
20734;SDS011;10528;52.124;5.196;2023-07-13T13:44:35;8.82;;;2.38;;
20734;SDS011;10528;52.124;5.196;2023-07-13T13:47:02;5.45;;;2.40;;
20734;SDS011;10528;52.124;5.196;2023-07-13T13:49:30;4.90;;;1.95;;
20734;SDS011;10528;52.124;5.196;2023-07-13T13:51:57;7.63;;;2.30;;
20734;SDS011;10528;52.124;5.196;2023-07-13T13:54:25;7.13;;;2.60;;
20734;SDS011;10528;52.124;5.196;2023-07-13T13:56:53;6.05;;;2.20;;
20734;SDS011;10528;52.124;5.196;2023-07-13T13:59:22;5.40;;;2.10;;
20734;SDS011;10528;52.124;5.196;2023-07-13T14:01:49;5.65;;;2.72;;
20734;SDS011;10528;52.124;5.196;2023-07-13T14:04:20;9.55;;;2.25;;
20734;SDS011;10528;52.124;5.196;2023-07-13T14:06:48;4.05;;;2.17;;
20734;SDS011;10528;52.124;5.196;2023-07-13T14:09:16;6.30;;;2.15;;
20734;SDS011;10528;52.124;5.196;2023-07-13T14:11:46;3.30;;;1.77;;
20734;SDS011;10528;52.124;5.196;2023-07-13T14:14:17;3.75;;;1.73;;
20734;SDS011;10528;52.124;5.196;2023-07-13T14:16:49;4.47;;;2.22;;
20734;SDS011;10528;52.124;5.196;2023-07-13T14:19:20;5.70;;;2.08;;
20734;SDS011;10528;52.124;5.196;2023-07-13T14:21:48;5.30;;;2.00;;
20734;SDS011;10528;52.124;5.196;2023-07-13T14:24:16;5.30;;;2.30;;
20734;SDS011;10528;52.124;5.196;2023-07-13T14:26:43;5.15;;;2.17;;
20734;SDS011;10528;52.124;5.196;2023-07-13T14:29:16;5.80;;;2.30;;
20734;SDS011;10528;52.124;5.196;2023-07-13T14:31:50;6.75;;;2.35;;
20734;SDS011;10528;52.124;5.196;2023-07-13T14:34:17;3.90;;;2.03;;
20734;SDS011;10528;52.124;5.196;2023-07-13T14:36:45;3.92;;;1.80;;
20734;SDS011;10528;52.124;5.196;2023-07-13T14:39:17;4.75;;;1.85;;
20734;SDS011;10528;52.124;5.196;2023-07-13T14:41:49;4.13;;;1.80;;
20734;SDS011;10528;52.124;5.196;2023-07-13T14:44:24;6.53;;;2.20;;
20734;SDS011;10528;52.124;5.196;2023-07-13T14:46:58;4.03;;;1.88;;
20734;SDS011;10528;52.124;5.196;2023-07-13T14:54:42;4.03;;;1.80;;
20734;SDS011;10528;52.124;5.196;2023-07-13T14:57:14;5.07;;;1.83;;
20734;SDS011;10528;52.124;5.196;2023-07-13T14:59:45;5.18;;;2.15;;
20734;SDS011;10528;52.124;5.196;2023-07-13T15:02:14;4.85;;;1.98;;
20734;SDS011;10528;52.124;5.196;2023-07-13T15:04:48;4.05;;;1.80;;
20734;SDS011;10528;52.124;5.196;2023-07-13T15:07:15;5.05;;;2.10;;
20734;SDS011;10528;52.124;5.196;2023-07-13T15:09:44;4.47;;;2.22;;
20734;SDS011;10528;52.124;5.196;2023-07-13T15:12:11;4.30;;;1.65;;
20734;SDS011;10528;52.124;5.196;2023-07-13T15:14:38;5.13;;;1.80;;
20734;SDS011;10528;52.124;5.196;2023-07-13T15:17:23;4.95;;;1.70;;
20734;SDS011;10528;52.124;5.196;2023-07-13T15:19:58;5.45;;;1.42;;
20734;SDS011;10528;52.124;5.196;2023-07-13T15:22:26;4.47;;;1.65;;
20734;SDS011;10528;52.124;5.196;2023-07-13T15:24:53;2.35;;;1.27;;
20734;SDS011;10528;52.124;5.196;2023-07-13T15:27:24;3.28;;;1.80;;
20734;SDS011;10528;52.124;5.196;2023-07-13T15:29:51;3.95;;;1.48;;
20734;SDS011;10528;52.124;5.196;2023-07-13T15:32:18;5.65;;;2.10;;
20734;SDS011;10528;52.124;5.196;2023-07-13T15:34:45;3.38;;;1.70;;
20734;SDS011;10528;52.124;5.196;2023-07-13T15:37:16;2.40;;;1.52;;
20734;SDS011;10528;52.124;5.196;2023-07-13T15:39:43;4.28;;;1.60;;
20734;SDS011;10528;52.124;5.196;2023-07-13T15:42:18;4.47;;;1.70;;
20734;SDS011;10528;52.124;5.196;2023-07-13T15:44:47;4.82;;;1.38;;
20734;SDS011;10528;52.124;5.196;2023-07-13T15:47:15;4.65;;;1.63;;
20734;SDS011;10528;52.124;5.196;2023-07-13T15:49:43;4.55;;;1.80;;
20734;SDS011;10528;52.124;5.196;2023-07-13T15:52:17;4.70;;;2.08;;
20734;SDS011;10528;52.124;5.196;2023-07-13T15:54:49;4.88;;;1.50;;
20734;SDS011;10528;52.124;5.196;2023-07-13T15:57:17;4.60;;;1.60;;
20734;SDS011;10528;52.124;5.196;2023-07-13T15:59:45;2.38;;;1.25;;